sensor_id;sensor_type;location;lat;lon;timestamp;temperature;humidity
69009;SHT31;56065;52.472;13.380;2022-12-31T00:00:52;9.93;86.91
69009;SHT31;56065;52.472;13.380;2022-12-31T00:03:17;9.94;86.95
69009;SHT31;56065;52.472;13.380;2022-12-31T00:05:42;9.86;87.14
69009;SHT31;56065;52.472;13.380;2022-12-31T00:08:08;9.87;87.21
69009;SHT31;56065;52.472;13.380;2022-12-31T00:10:33;9.99;86.93
69009;SHT31;56065;52.472;13.380;2022-12-31T00:13:05;10.09;86.74
69009;SHT31;56065;52.472;13.380;2022-12-31T00:15:30;10.07;86.63
69009;SHT31;56065;52.472;13.380;2022-12-31T00:17:56;10.14;86.40
69009;SHT31;56065;52.472;13.380;2022-12-31T00:20:21;10.07;86.76
69009;SHT31;56065;52.472;13.380;2022-12-31T00:22:46;10.10;86.59
69009;SHT31;56065;52.472;13.380;2022-12-31T00:25:12;10.20;86.24
69009;SHT31;56065;52.472;13.380;2022-12-31T00:27:37;10.18;86.37
69009;SHT31;56065;52.472;13.380;2022-12-31T00:30:03;10.13;86.39
69009;SHT31;56065;52.472;13.380;2022-12-31T00:32:28;10.12;86.57
69009;SHT31;56065;52.472;13.380;2022-12-31T00:34:53;10.18;86.29
69009;SHT31;56065;52.472;13.380;2022-12-31T00:37:19;10.21;86.27
69009;SHT31;56065;52.472;13.380;2022-12-31T00:39:44;10.23;85.98
69009;SHT31;56065;52.472;13.380;2022-12-31T00:42:09;10.20;86.05
69009;SHT31;56065;52.472;13.380;2022-12-31T00:44:35;10.14;86.29
69009;SHT31;56065;52.472;13.380;2022-12-31T00:47:00;10.07;86.37
69009;SHT31;56065;52.472;13.380;2022-12-31T00:49:25;9.92;86.93
69009;SHT31;56065;52.472;13.380;2022-12-31T00:51:51;9.96;86.78
69009;SHT31;56065;52.472;13.380;2022-12-31T00:54:16;9.87;87.06
69009;SHT31;56065;52.472;13.380;2022-12-31T00:56:41;9.92;87.00
69009;SHT31;56065;52.472;13.380;2022-12-31T00:59:07;9.97;86.92
69009;SHT31;56065;52.472;13.380;2022-12-31T01:01:34;10.03;86.68
69009;SHT31;56065;52.472;13.380;2022-12-31T01:04:05;9.94;87.12
69009;SHT31;56065;52.472;13.380;2022-12-31T01:06:31;10.07;86.79
69009;SHT31;56065;52.472;13.380;2022-12-31T01:08:57;10.03;87.20
69009;SHT31;56065;52.472;13.380;2022-12-31T01:11:22;10.14;86.93
69009;SHT31;56065;52.472;13.380;2022-12-31T01:13:59;10.23;86.69
69009;SHT31;56065;52.472;13.380;2022-12-31T01:18:53;10.38;86.41
69009;SHT31;56065;52.472;13.380;2022-12-31T01:21:19;10.33;86.65
69009;SHT31;56065;52.472;13.380;2022-12-31T01:23:45;10.34;86.86
69009;SHT31;56065;52.472;13.380;2022-12-31T01:26:13;10.41;86.61
69009;SHT31;56065;52.472;13.380;2022-12-31T01:28:38;10.47;86.72
69009;SHT31;56065;52.472;13.380;2022-12-31T01:31:06;10.54;86.70
69009;SHT31;56065;52.472;13.380;2022-12-31T01:33:32;10.58;86.54
69009;SHT31;56065;52.472;13.380;2022-12-31T01:36:06;10.68;86.45
69009;SHT31;56065;52.472;13.380;2022-12-31T01:38:32;10.76;86.28
69009;SHT31;56065;52.472;13.380;2022-12-31T01:40:57;10.84;86.15
69009;SHT31;56065;52.472;13.380;2022-12-31T01:43:23;10.74;86.47
69009;SHT31;56065;52.472;13.380;2022-12-31T01:46:05;10.92;86.31
69009;SHT31;56065;52.472;13.380;2022-12-31T01:48:31;10.96;86.33
69009;SHT31;56065;52.472;13.380;2022-12-31T01:50:56;10.95;86.55
69009;SHT31;56065;52.472;13.380;2022-12-31T01:53:22;11.06;86.25
69009;SHT31;56065;52.472;13.380;2022-12-31T01:55:54;11.16;86.85
69009;SHT31;56065;52.472;13.380;2022-12-31T01:58:24;11.70;87.67
69009;SHT31;56065;52.472;13.380;2022-12-31T02:00:52;11.94;86.02
69009;SHT31;56065;52.472;13.380;2022-12-31T02:03:19;12.11;86.33
69009;SHT31;56065;52.472;13.380;2022-12-31T02:05:50;12.22;84.84
69009;SHT31;56065;52.472;13.380;2022-12-31T02:08:19;12.26;84.34
69009;SHT31;56065;52.472;13.380;2022-12-31T02:10:45;12.35;84.63
69009;SHT31;56065;52.472;13.380;2022-12-31T02:13:10;12.21;83.83
69009;SHT31;56065;52.472;13.380;2022-12-31T02:30:00;11.69;85.37
69009;SHT31;56065;52.472;13.380;2022-12-31T02:32:28;11.64;85.46
69009;SHT31;56065;52.472;13.380;2022-12-31T02:35:03;11.70;85.39
69009;SHT31;56065;52.472;13.380;2022-12-31T02:37:31;11.77;85.37
69009;SHT31;56065;52.472;13.380;2022-12-31T02:39:58;11.85;84.97
69009;SHT31;56065;52.472;13.380;2022-12-31T02:42:24;11.81;85.11
69009;SHT31;56065;52.472;13.380;2022-12-31T02:44:49;11.93;84.85
69009;SHT31;56065;52.472;13.380;2022-12-31T02:47:34;11.80;85.28
69009;SHT31;56065;52.472;13.380;2022-12-31T02:55:26;11.83;85.27
69009;SHT31;56065;52.472;13.380;2022-12-31T03:00:30;11.80;85.09
69009;SHT31;56065;52.472;13.380;2022-12-31T03:03:18;11.83;84.85
69009;SHT31;56065;52.472;13.380;2022-12-31T03:05:45;11.62;85.16
69009;SHT31;56065;52.472;13.380;2022-12-31T03:08:20;11.71;85.00
69009;SHT31;56065;52.472;13.380;2022-12-31T03:10:45;11.70;85.01
69009;SHT31;56065;52.472;13.380;2022-12-31T03:13:10;11.71;84.84
69009;SHT31;56065;52.472;13.380;2022-12-31T03:15:36;11.71;84.84
69009;SHT31;56065;52.472;13.380;2022-12-31T03:20:43;11.74;84.69
69009;SHT31;56065;52.472;13.380;2022-12-31T03:23:47;11.77;84.39
69009;SHT31;56065;52.472;13.380;2022-12-31T03:26:31;11.53;85.13
69009;SHT31;56065;52.472;13.380;2022-12-31T03:28:56;11.53;85.14
69009;SHT31;56065;52.472;13.380;2022-12-31T03:31:22;11.40;85.57
69009;SHT31;56065;52.472;13.380;2022-12-31T03:33:47;11.26;86.23
69009;SHT31;56065;52.472;13.380;2022-12-31T03:36:13;11.50;85.46
69009;SHT31;56065;52.472;13.380;2022-12-31T03:38:39;11.40;85.68
69009;SHT31;56065;52.472;13.380;2022-12-31T03:41:05;11.46;85.90
69009;SHT31;56065;52.472;13.380;2022-12-31T03:43:30;11.60;85.59
69009;SHT31;56065;52.472;13.380;2022-12-31T03:45:56;11.49;86.01
69009;SHT31;56065;52.472;13.380;2022-12-31T03:48:23;11.60;85.69
69009;SHT31;56065;52.472;13.380;2022-12-31T03:50:49;11.66;85.71
69009;SHT31;56065;52.472;13.380;2022-12-31T03:53:15;11.56;86.00
69009;SHT31;56065;52.472;13.380;2022-12-31T03:55:40;11.66;85.75
69009;SHT31;56065;52.472;13.380;2022-12-31T03:58:06;11.74;85.65
69009;SHT31;56065;52.472;13.380;2022-12-31T04:00:31;11.73;85.67
69009;SHT31;56065;52.472;13.380;2022-12-31T04:02:57;11.93;85.11
69009;SHT31;56065;52.472;13.380;2022-12-31T04:05:23;11.99;84.95
69009;SHT31;56065;52.472;13.380;2022-12-31T04:07:48;12.01;84.80
69009;SHT31;56065;52.472;13.380;2022-12-31T04:10:16;12.10;84.74
69009;SHT31;56065;52.472;13.380;2022-12-31T04:12:42;12.18;84.63
69009;SHT31;56065;52.472;13.380;2022-12-31T04:15:09;12.12;84.81
69009;SHT31;56065;52.472;13.380;2022-12-31T04:17:35;11.99;85.11
69009;SHT31;56065;52.472;13.380;2022-12-31T04:20:01;11.98;85.32
69009;SHT31;56065;52.472;13.380;2022-12-31T04:22:26;12.02;85.29
69009;SHT31;56065;52.472;13.380;2022-12-31T04:24:52;12.01;85.19
69009;SHT31;56065;52.472;13.380;2022-12-31T04:27:17;12.10;85.25
69009;SHT31;56065;52.472;13.380;2022-12-31T04:29:42;12.18;85.09
69009;SHT31;56065;52.472;13.380;2022-12-31T04:32:10;12.28;85.01
69009;SHT31;56065;52.472;13.380;2022-12-31T04:34:35;12.29;85.05
69009;SHT31;56065;52.472;13.380;2022-12-31T04:37:01;12.32;84.98
69009;SHT31;56065;52.472;13.380;2022-12-31T04:39:27;12.34;85.01
69009;SHT31;56065;52.472;13.380;2022-12-31T04:41:52;12.48;84.63
69009;SHT31;56065;52.472;13.380;2022-12-31T04:44:18;12.41;85.20
69009;SHT31;56065;52.472;13.380;2022-12-31T04:46:44;12.46;84.91
69009;SHT31;56065;52.472;13.380;2022-12-31T04:49:09;12.38;85.53
69009;SHT31;56065;52.472;13.380;2022-12-31T04:51:35;12.41;85.25
69009;SHT31;56065;52.472;13.380;2022-12-31T04:54:01;12.45;85.23
69009;SHT31;56065;52.472;13.380;2022-12-31T04:56:27;12.46;85.14
69009;SHT31;56065;52.472;13.380;2022-12-31T04:58:52;12.36;85.54
69009;SHT31;56065;52.472;13.380;2022-12-31T05:01:18;12.50;85.20
69009;SHT31;56065;52.472;13.380;2022-12-31T05:03:43;12.42;85.57
69009;SHT31;56065;52.472;13.380;2022-12-31T05:06:17;12.38;85.45
69009;SHT31;56065;52.472;13.380;2022-12-31T05:08:43;12.36;85.67
69009;SHT31;56065;52.472;13.380;2022-12-31T05:11:09;12.55;85.30
69009;SHT31;56065;52.472;13.380;2022-12-31T05:13:34;12.60;85.31
69009;SHT31;56065;52.472;13.380;2022-12-31T05:16:00;12.49;85.47
69009;SHT31;56065;52.472;13.380;2022-12-31T05:18:26;12.56;85.62
69009;SHT31;56065;52.472;13.380;2022-12-31T05:20:52;12.65;85.39
69009;SHT31;56065;52.472;13.380;2022-12-31T05:23:17;12.70;85.33
69009;SHT31;56065;52.472;13.380;2022-12-31T05:25:44;12.79;85.23
69009;SHT31;56065;52.472;13.380;2022-12-31T05:28:10;12.75;85.60
69009;SHT31;56065;52.472;13.380;2022-12-31T05:30:36;12.82;85.71
69009;SHT31;56065;52.472;13.380;2022-12-31T05:33:01;12.60;87.43
69009;SHT31;56065;52.472;13.380;2022-12-31T05:35:29;12.39;89.17
69009;SHT31;56065;52.472;13.380;2022-12-31T05:37:55;12.25;90.42
69009;SHT31;56065;52.472;13.380;2022-12-31T05:40:20;12.21;90.74
69009;SHT31;56065;52.472;13.380;2022-12-31T05:42:45;12.28;91.18
69009;SHT31;56065;52.472;13.380;2022-12-31T05:45:11;12.46;90.23
69009;SHT31;56065;52.472;13.380;2022-12-31T05:47:40;12.48;91.02
69009;SHT31;56065;52.472;13.380;2022-12-31T05:50:07;12.35;91.76
69009;SHT31;56065;52.472;13.380;2022-12-31T05:52:32;12.38;91.59
69009;SHT31;56065;52.472;13.380;2022-12-31T05:54:58;12.39;91.27
69009;SHT31;56065;52.472;13.380;2022-12-31T05:57:23;12.48;91.17
69009;SHT31;56065;52.472;13.380;2022-12-31T05:59:48;12.55;90.64
69009;SHT31;56065;52.472;13.380;2022-12-31T06:02:14;12.42;91.17
69009;SHT31;56065;52.472;13.380;2022-12-31T06:04:39;12.52;90.89
69009;SHT31;56065;52.472;13.380;2022-12-31T06:07:05;12.45;91.36
69009;SHT31;56065;52.472;13.380;2022-12-31T06:09:30;12.55;90.56
69009;SHT31;56065;52.472;13.380;2022-12-31T06:11:55;12.62;90.49
69009;SHT31;56065;52.472;13.380;2022-12-31T06:14:21;12.43;90.79
69009;SHT31;56065;52.472;13.380;2022-12-31T06:16:46;12.48;90.79
69009;SHT31;56065;52.472;13.380;2022-12-31T06:19:11;12.41;91.01
69009;SHT31;56065;52.472;13.380;2022-12-31T06:21:37;12.49;90.49
69009;SHT31;56065;52.472;13.380;2022-12-31T06:24:02;12.50;90.61
69009;SHT31;56065;52.472;13.380;2022-12-31T06:26:28;12.53;90.54
69009;SHT31;56065;52.472;13.380;2022-12-31T06:28:53;12.62;90.20
69009;SHT31;56065;52.472;13.380;2022-12-31T06:31:18;12.55;90.17
69009;SHT31;56065;52.472;13.380;2022-12-31T06:33:44;12.60;90.15
69009;SHT31;56065;52.472;13.380;2022-12-31T06:36:13;12.63;90.09
69009;SHT31;56065;52.472;13.380;2022-12-31T06:38:39;12.79;89.69
69009;SHT31;56065;52.472;13.380;2022-12-31T06:41:06;12.79;89.47
69009;SHT31;56065;52.472;13.380;2022-12-31T06:43:33;12.79;89.25
69009;SHT31;56065;52.472;13.380;2022-12-31T06:46:07;12.90;89.20
69009;SHT31;56065;52.472;13.380;2022-12-31T06:48:33;12.96;89.06
69009;SHT31;56065;52.472;13.380;2022-12-31T06:51:07;13.02;89.05
69009;SHT31;56065;52.472;13.380;2022-12-31T06:53:33;13.10;88.42
69009;SHT31;56065;52.472;13.380;2022-12-31T06:56:05;13.14;88.38
69009;SHT31;56065;52.472;13.380;2022-12-31T06:58:31;13.24;88.12
69009;SHT31;56065;52.472;13.380;2022-12-31T07:06:47;13.43;87.51
69009;SHT31;56065;52.472;13.380;2022-12-31T07:09:21;13.50;86.98
69009;SHT31;56065;52.472;13.380;2022-12-31T07:12:08;13.61;86.99
69009;SHT31;56065;52.472;13.380;2022-12-31T07:20:02;13.59;86.94
69009;SHT31;56065;52.472;13.380;2022-12-31T07:22:29;13.66;86.75
69009;SHT31;56065;52.472;13.380;2022-12-31T07:24:54;13.78;86.54
69009;SHT31;56065;52.472;13.380;2022-12-31T07:34:59;14.12;85.49
69009;SHT31;56065;52.472;13.380;2022-12-31T07:40:21;14.22;85.11
69009;SHT31;56065;52.472;13.380;2022-12-31T07:43:10;14.13;85.24
69009;SHT31;56065;52.472;13.380;2022-12-31T07:48:02;14.32;84.84
69009;SHT31;56065;52.472;13.380;2022-12-31T07:50:28;14.40;84.48
69009;SHT31;56065;52.472;13.380;2022-12-31T07:52:53;14.48;84.37
69009;SHT31;56065;52.472;13.380;2022-12-31T07:55:19;14.54;84.14
69009;SHT31;56065;52.472;13.380;2022-12-31T07:57:54;14.64;83.91
69009;SHT31;56065;52.472;13.380;2022-12-31T08:00:22;14.61;83.92
69009;SHT31;56065;52.472;13.380;2022-12-31T08:11:01;14.85;83.23
69009;SHT31;56065;52.472;13.380;2022-12-31T08:13:31;14.84;83.27
69009;SHT31;56065;52.472;13.380;2022-12-31T08:15:56;14.98;82.95
69009;SHT31;56065;52.472;13.380;2022-12-31T08:18:22;14.94;82.80
69009;SHT31;56065;52.472;13.380;2022-12-31T08:26:37;15.15;82.41
69009;SHT31;56065;52.472;13.380;2022-12-31T08:32:08;15.22;82.29
69009;SHT31;56065;52.472;13.380;2022-12-31T08:35:02;15.24;82.25
69009;SHT31;56065;52.472;13.380;2022-12-31T08:37:42;15.31;81.94
69009;SHT31;56065;52.472;13.380;2022-12-31T08:43:03;15.42;81.69
69009;SHT31;56065;52.472;13.380;2022-12-31T08:45:38;15.49;81.65
69009;SHT31;56065;52.472;13.380;2022-12-31T08:50:31;15.50;81.59
69009;SHT31;56065;52.472;13.380;2022-12-31T08:52:57;15.57;81.27
69009;SHT31;56065;52.472;13.380;2022-12-31T08:55:22;15.70;80.82
69009;SHT31;56065;52.472;13.380;2022-12-31T08:58:09;15.77;80.87
69009;SHT31;56065;52.472;13.380;2022-12-31T09:00:37;15.89;80.53
69009;SHT31;56065;52.472;13.380;2022-12-31T09:14:43;15.98;80.19
69009;SHT31;56065;52.472;13.380;2022-12-31T09:17:40;15.90;80.23
69009;SHT31;56065;52.472;13.380;2022-12-31T09:20:30;16.04;80.36
69009;SHT31;56065;52.472;13.380;2022-12-31T09:22:57;16.05;80.11
69009;SHT31;56065;52.472;13.380;2022-12-31T09:25:24;16.21;79.82
69009;SHT31;56065;52.472;13.380;2022-12-31T09:30:21;17.03;77.67
69009;SHT31;56065;52.472;13.380;2022-12-31T09:35:53;17.96;75.98
69009;SHT31;56065;52.472;13.380;2022-12-31T09:41:39;18.46;74.42
69009;SHT31;56065;52.472;13.380;2022-12-31T09:52:56;19.03;72.90
69009;SHT31;56065;52.472;13.380;2022-12-31T09:55:47;19.41;72.47
69009;SHT31;56065;52.472;13.380;2022-12-31T09:58:37;19.59;71.83
69009;SHT31;56065;52.472;13.380;2022-12-31T10:01:34;19.90;70.71
69009;SHT31;56065;52.472;13.380;2022-12-31T10:15:29;19.28;71.87
69009;SHT31;56065;52.472;13.380;2022-12-31T10:23:54;19.19;72.20
69009;SHT31;56065;52.472;13.380;2022-12-31T10:26:41;18.64;73.58
69009;SHT31;56065;52.472;13.380;2022-12-31T10:29:23;18.17;74.36
69009;SHT31;56065;52.472;13.380;2022-12-31T10:37:13;17.88;75.72
69009;SHT31;56065;52.472;13.380;2022-12-31T11:01:47;17.81;76.46
69009;SHT31;56065;52.472;13.380;2022-12-31T11:07:26;17.70;77.22
69009;SHT31;56065;52.472;13.380;2022-12-31T11:15:17;17.82;76.73
69009;SHT31;56065;52.472;13.380;2022-12-31T11:17:56;17.79;76.76
69009;SHT31;56065;52.472;13.380;2022-12-31T11:23:19;17.95;76.40
69009;SHT31;56065;52.472;13.380;2022-12-31T11:26:11;17.88;76.42
69009;SHT31;56065;52.472;13.380;2022-12-31T11:48:01;18.46;74.43
69009;SHT31;56065;52.472;13.380;2022-12-31T11:56:21;18.56;73.95
69009;SHT31;56065;52.472;13.380;2022-12-31T11:58:50;18.35;73.94
69009;SHT31;56065;52.472;13.380;2022-12-31T12:01:31;18.50;74.56
69009;SHT31;56065;52.472;13.380;2022-12-31T12:03:58;18.57;73.71
69009;SHT31;56065;52.472;13.380;2022-12-31T12:06:31;18.50;73.91
69009;SHT31;56065;52.472;13.380;2022-12-31T12:09:13;18.64;73.47
69009;SHT31;56065;52.472;13.380;2022-12-31T12:11:39;18.73;73.35
69009;SHT31;56065;52.472;13.380;2022-12-31T12:14:31;18.91;73.16
69009;SHT31;56065;52.472;13.380;2022-12-31T12:16:58;18.78;73.15
69009;SHT31;56065;52.472;13.380;2022-12-31T12:19:27;19.01;72.49
69009;SHT31;56065;52.472;13.380;2022-12-31T12:21:54;18.88;72.78
69009;SHT31;56065;52.472;13.380;2022-12-31T12:24:21;18.70;72.90
69009;SHT31;56065;52.472;13.380;2022-12-31T12:26:47;18.49;73.52
69009;SHT31;56065;52.472;13.380;2022-12-31T12:29:22;18.49;73.77
69009;SHT31;56065;52.472;13.380;2022-12-31T12:34:56;18.39;74.04
69009;SHT31;56065;52.472;13.380;2022-12-31T12:40:01;18.68;73.88
69009;SHT31;56065;52.472;13.380;2022-12-31T12:42:28;18.77;73.47
69009;SHT31;56065;52.472;13.380;2022-12-31T12:45:13;18.57;73.71
69009;SHT31;56065;52.472;13.380;2022-12-31T12:47:42;18.60;73.99
69009;SHT31;56065;52.472;13.380;2022-12-31T12:50:19;18.56;74.07
69009;SHT31;56065;52.472;13.380;2022-12-31T13:00:36;18.39;73.91
69009;SHT31;56065;52.472;13.380;2022-12-31T13:11:31;18.47;73.58
69009;SHT31;56065;52.472;13.380;2022-12-31T13:14:23;18.32;73.91
69009;SHT31;56065;52.472;13.380;2022-12-31T13:16:57;18.42;73.65
69009;SHT31;56065;52.472;13.380;2022-12-31T13:19:41;18.37;73.39
69009;SHT31;56065;52.472;13.380;2022-12-31T13:22:24;18.49;73.41
69009;SHT31;56065;52.472;13.380;2022-12-31T13:27:56;18.50;73.14
69009;SHT31;56065;52.472;13.380;2022-12-31T13:30:27;18.25;73.73
69009;SHT31;56065;52.472;13.380;2022-12-31T13:33:00;18.24;73.96
69009;SHT31;56065;52.472;13.380;2022-12-31T13:37:57;18.24;74.01
69009;SHT31;56065;52.472;13.380;2022-12-31T13:40:40;18.25;73.76
69009;SHT31;56065;52.472;13.380;2022-12-31T13:43:37;18.32;73.54
69009;SHT31;56065;52.472;13.380;2022-12-31T13:46:16;18.26;73.69
69009;SHT31;56065;52.472;13.380;2022-12-31T13:48:55;18.29;73.66
69009;SHT31;56065;52.472;13.380;2022-12-31T13:51:23;18.19;73.65
69009;SHT31;56065;52.472;13.380;2022-12-31T13:54:04;18.22;73.66
69009;SHT31;56065;52.472;13.380;2022-12-31T13:56:35;18.30;73.54
69009;SHT31;56065;52.472;13.380;2022-12-31T13:59:18;18.32;73.66
69009;SHT31;56065;52.472;13.380;2022-12-31T14:01:50;18.32;73.59
69009;SHT31;56065;52.472;13.380;2022-12-31T14:04:41;18.30;73.68
69009;SHT31;56065;52.472;13.380;2022-12-31T14:07:20;18.29;73.77
69009;SHT31;56065;52.472;13.380;2022-12-31T14:09:46;18.22;73.67
69009;SHT31;56065;52.472;13.380;2022-12-31T14:15:31;18.24;73.78
69009;SHT31;56065;52.472;13.380;2022-12-31T14:20:41;18.24;73.72
69009;SHT31;56065;52.472;13.380;2022-12-31T14:23:25;18.30;73.62
69009;SHT31;56065;52.472;13.380;2022-12-31T14:25:58;18.25;73.51
69009;SHT31;56065;52.472;13.380;2022-12-31T14:28:34;18.21;73.57
69009;SHT31;56065;52.472;13.380;2022-12-31T14:52:19;18.19;73.55
69009;SHT31;56065;52.472;13.380;2022-12-31T14:54:59;18.25;73.61
69009;SHT31;56065;52.472;13.380;2022-12-31T14:57:33;18.24;73.67
69009;SHT31;56065;52.472;13.380;2022-12-31T15:00:02;18.25;73.52
69009;SHT31;56065;52.472;13.380;2022-12-31T15:02:49;17.98;74.11
69009;SHT31;56065;52.472;13.380;2022-12-31T15:05:18;17.99;74.29
69009;SHT31;56065;52.472;13.380;2022-12-31T15:10:41;17.88;74.64
69009;SHT31;56065;52.472;13.380;2022-12-31T15:13:40;17.89;74.62
69009;SHT31;56065;52.472;13.380;2022-12-31T15:16:11;17.89;74.79
69009;SHT31;56065;52.472;13.380;2022-12-31T15:23:51;17.67;75.26
69009;SHT31;56065;52.472;13.380;2022-12-31T15:26:23;17.78;75.00
69009;SHT31;56065;52.472;13.380;2022-12-31T15:29:03;17.63;75.29
69009;SHT31;56065;52.472;13.380;2022-12-31T15:31:31;17.65;75.48
69009;SHT31;56065;52.472;13.380;2022-12-31T15:36:26;17.71;75.11
69009;SHT31;56065;52.472;13.380;2022-12-31T15:39:03;17.79;74.88
69009;SHT31;56065;52.472;13.380;2022-12-31T15:44:25;17.77;74.97
69009;SHT31;56065;52.472;13.380;2022-12-31T15:46:57;17.65;75.35
69009;SHT31;56065;52.472;13.380;2022-12-31T15:49:24;17.67;75.29
69009;SHT31;56065;52.472;13.380;2022-12-31T15:52:00;17.57;75.38
69009;SHT31;56065;52.472;13.380;2022-12-31T15:56:54;17.64;75.61
69009;SHT31;56065;52.472;13.380;2022-12-31T15:59:20;17.60;75.15
69009;SHT31;56065;52.472;13.380;2022-12-31T16:01:47;17.64;75.10
69009;SHT31;56065;52.472;13.380;2022-12-31T16:06:46;17.54;75.19
69009;SHT31;56065;52.472;13.380;2022-12-31T16:09:31;17.74;74.60
69009;SHT31;56065;52.472;13.380;2022-12-31T16:12:00;17.60;75.03
69009;SHT31;56065;52.472;13.380;2022-12-31T16:14:38;17.51;75.10
69009;SHT31;56065;52.472;13.380;2022-12-31T16:17:05;17.53;75.20
69009;SHT31;56065;52.472;13.380;2022-12-31T16:19:34;17.53;75.12
69009;SHT31;56065;52.472;13.380;2022-12-31T16:22:27;17.58;75.06
69009;SHT31;56065;52.472;13.380;2022-12-31T16:24:55;17.51;75.08
69009;SHT31;56065;52.472;13.380;2022-12-31T16:27:23;17.57;75.06
69009;SHT31;56065;52.472;13.380;2022-12-31T16:29:56;17.65;74.76
69009;SHT31;56065;52.472;13.380;2022-12-31T16:32:22;17.64;74.95
69009;SHT31;56065;52.472;13.380;2022-12-31T16:34:47;17.55;74.98
69009;SHT31;56065;52.472;13.380;2022-12-31T16:37:15;17.65;74.77
69009;SHT31;56065;52.472;13.380;2022-12-31T16:42:22;17.70;74.71
69009;SHT31;56065;52.472;13.380;2022-12-31T16:44:49;17.71;74.73
69009;SHT31;56065;52.472;13.380;2022-12-31T16:47:38;17.73;74.49
69009;SHT31;56065;52.472;13.380;2022-12-31T16:50:13;17.86;74.36
69009;SHT31;56065;52.472;13.380;2022-12-31T16:52:42;17.88;74.08
69009;SHT31;56065;52.472;13.380;2022-12-31T16:55:13;17.74;74.26
69009;SHT31;56065;52.472;13.380;2022-12-31T16:57:41;17.79;74.21
69009;SHT31;56065;52.472;13.380;2022-12-31T17:00:14;17.81;74.08
69009;SHT31;56065;52.472;13.380;2022-12-31T17:02:41;17.78;74.07
69009;SHT31;56065;52.472;13.380;2022-12-31T17:05:25;17.75;74.06
69009;SHT31;56065;52.472;13.380;2022-12-31T17:07:51;17.64;74.18
69009;SHT31;56065;52.472;13.380;2022-12-31T17:10:34;17.68;74.18
69009;SHT31;56065;52.472;13.380;2022-12-31T17:13:01;17.73;74.02
69009;SHT31;56065;52.472;13.380;2022-12-31T17:15:57;17.75;73.75
69009;SHT31;56065;52.472;13.380;2022-12-31T17:18:25;17.84;73.62
69009;SHT31;56065;52.472;13.380;2022-12-31T17:20:53;17.75;73.75
69009;SHT31;56065;52.472;13.380;2022-12-31T17:23:27;17.94;73.33
69009;SHT31;56065;52.472;13.380;2022-12-31T17:26:04;17.84;73.38
69009;SHT31;56065;52.472;13.380;2022-12-31T17:28:47;17.73;73.67
69009;SHT31;56065;52.472;13.380;2022-12-31T17:31:38;17.65;73.80
69009;SHT31;56065;52.472;13.380;2022-12-31T17:37:01;17.86;73.43
69009;SHT31;56065;52.472;13.380;2022-12-31T17:39:42;17.85;73.21
69009;SHT31;56065;52.472;13.380;2022-12-31T17:42:08;17.88;73.21
69009;SHT31;56065;52.472;13.380;2022-12-31T17:44:39;17.94;73.28
69009;SHT31;56065;52.472;13.380;2022-12-31T17:47:07;17.91;73.19
69009;SHT31;56065;52.472;13.380;2022-12-31T17:49:33;17.86;73.20
69009;SHT31;56065;52.472;13.380;2022-12-31T17:52:00;17.84;73.34
69009;SHT31;56065;52.472;13.380;2022-12-31T17:54:25;17.73;73.33
69009;SHT31;56065;52.472;13.380;2022-12-31T17:56:51;17.82;73.28
69009;SHT31;56065;52.472;13.380;2022-12-31T17:59:20;17.73;73.47
69009;SHT31;56065;52.472;13.380;2022-12-31T18:01:46;17.67;73.66
69009;SHT31;56065;52.472;13.380;2022-12-31T18:04:14;17.68;73.73
69009;SHT31;56065;52.472;13.380;2022-12-31T18:06:40;17.58;73.66
69009;SHT31;56065;52.472;13.380;2022-12-31T18:09:06;17.78;73.11
69009;SHT31;56065;52.472;13.380;2022-12-31T18:11:33;17.65;73.42
69009;SHT31;56065;52.472;13.380;2022-12-31T18:13:59;17.61;73.53
69009;SHT31;56065;52.472;13.380;2022-12-31T18:16:24;17.58;73.58
69009;SHT31;56065;52.472;13.380;2022-12-31T18:18:50;17.60;73.68
69009;SHT31;56065;52.472;13.380;2022-12-31T18:21:23;17.73;73.11
69009;SHT31;56065;52.472;13.380;2022-12-31T18:23:51;17.60;73.46
69009;SHT31;56065;52.472;13.380;2022-12-31T18:26:19;17.54;73.56
69009;SHT31;56065;52.472;13.380;2022-12-31T18:28:45;17.58;73.57
69009;SHT31;56065;52.472;13.380;2022-12-31T18:31:21;17.57;73.48
69009;SHT31;56065;52.472;13.380;2022-12-31T18:33:47;17.61;73.22
69009;SHT31;56065;52.472;13.380;2022-12-31T18:36:16;17.47;73.63
69009;SHT31;56065;52.472;13.380;2022-12-31T18:38:42;17.41;73.83
69009;SHT31;56065;52.472;13.380;2022-12-31T18:41:18;17.34;73.97
69009;SHT31;56065;52.472;13.380;2022-12-31T18:43:45;17.33;74.16
69009;SHT31;56065;52.472;13.380;2022-12-31T18:46:12;17.37;73.97
69009;SHT31;56065;52.472;13.380;2022-12-31T18:48:37;17.41;73.89
69009;SHT31;56065;52.472;13.380;2022-12-31T18:51:06;17.31;74.15
69009;SHT31;56065;52.472;13.380;2022-12-31T18:53:31;17.38;73.88
69009;SHT31;56065;52.472;13.380;2022-12-31T18:55:57;17.43;73.80
69009;SHT31;56065;52.472;13.380;2022-12-31T18:58:22;17.30;74.20
69009;SHT31;56065;52.472;13.380;2022-12-31T19:00:49;17.22;74.35
69009;SHT31;56065;52.472;13.380;2022-12-31T19:03:18;17.30;74.23
69009;SHT31;56065;52.472;13.380;2022-12-31T19:05:44;17.16;74.53
69009;SHT31;56065;52.472;13.380;2022-12-31T19:08:13;17.24;74.49
69009;SHT31;56065;52.472;13.380;2022-12-31T19:10:38;17.19;74.66
69009;SHT31;56065;52.472;13.380;2022-12-31T19:13:03;17.12;74.85
69009;SHT31;56065;52.472;13.380;2022-12-31T19:15:40;17.09;74.93
69009;SHT31;56065;52.472;13.380;2022-12-31T19:18:06;17.10;74.96
69009;SHT31;56065;52.472;13.380;2022-12-31T19:20:31;17.03;75.11
69009;SHT31;56065;52.472;13.380;2022-12-31T19:22:56;17.05;75.01
69009;SHT31;56065;52.472;13.380;2022-12-31T19:25:23;16.95;75.22
69009;SHT31;56065;52.472;13.380;2022-12-31T19:27:49;16.99;75.21
69009;SHT31;56065;52.472;13.380;2022-12-31T19:30:23;16.93;75.30
69009;SHT31;56065;52.472;13.380;2022-12-31T19:32:49;16.80;75.48
69009;SHT31;56065;52.472;13.380;2022-12-31T19:35:15;16.80;75.54
69009;SHT31;56065;52.472;13.380;2022-12-31T19:37:44;16.69;75.66
69009;SHT31;56065;52.472;13.380;2022-12-31T19:40:21;16.75;75.50
69009;SHT31;56065;52.472;13.380;2022-12-31T19:42:48;16.73;75.46
69009;SHT31;56065;52.472;13.380;2022-12-31T19:45:19;16.73;75.39
69009;SHT31;56065;52.472;13.380;2022-12-31T19:47:45;16.75;75.33
69009;SHT31;56065;52.472;13.380;2022-12-31T19:50:16;16.72;75.34
69009;SHT31;56065;52.472;13.380;2022-12-31T19:52:43;16.77;75.18
69009;SHT31;56065;52.472;13.380;2022-12-31T19:55:15;16.79;75.13
69009;SHT31;56065;52.472;13.380;2022-12-31T19:57:42;16.73;75.12